sensor_id;sensor_type;location;lat;lon;timestamp;temperature;humidity
4548;DHT22;2286;51.570;7.090;2023-01-08T00:01:13;10.10;1.00
4548;DHT22;2286;51.570;7.090;2023-01-08T00:03:40;10.10;1.00
4548;DHT22;2286;51.570;7.090;2023-01-08T00:06:09;10.10;1.00
4548;DHT22;2286;51.570;7.090;2023-01-08T00:08:36;10.10;99.90
4548;DHT22;2286;51.570;7.090;2023-01-08T00:11:04;10.20;99.90
4548;DHT22;2286;51.570;7.090;2023-01-08T00:13:31;10.10;36.30
4548;DHT22;2286;51.570;7.090;2023-01-08T00:16:02;10.20;99.90
4548;DHT22;2286;51.570;7.090;2023-01-08T00:18:31;10.20;99.90
4548;DHT22;2286;51.570;7.090;2023-01-08T00:20:58;10.10;99.90
4548;DHT22;2286;51.570;7.090;2023-01-08T00:23:25;10.20;1.00
4548;DHT22;2286;51.570;7.090;2023-01-08T00:25:52;10.20;1.00
4548;DHT22;2286;51.570;7.090;2023-01-08T00:28:19;10.20;99.90
4548;DHT22;2286;51.570;7.090;2023-01-08T00:30:47;10.30;99.90
4548;DHT22;2286;51.570;7.090;2023-01-08T00:33:14;10.30;1.00
4548;DHT22;2286;51.570;7.090;2023-01-08T00:35:42;10.30;1.00
4548;DHT22;2286;51.570;7.090;2023-01-08T00:38:09;10.30;1.00
4548;DHT22;2286;51.570;7.090;2023-01-08T00:40:37;10.30;1.00
4548;DHT22;2286;51.570;7.090;2023-01-08T00:43:05;10.20;1.00
4548;DHT22;2286;51.570;7.090;2023-01-08T00:45:32;10.20;1.00
4548;DHT22;2286;51.570;7.090;2023-01-08T00:47:59;10.30;1.00
4548;DHT22;2286;51.570;7.090;2023-01-08T00:50:27;10.30;1.00
4548;DHT22;2286;51.570;7.090;2023-01-08T00:52:55;10.30;1.00
4548;DHT22;2286;51.570;7.090;2023-01-08T00:55:22;10.30;1.00
4548;DHT22;2286;51.570;7.090;2023-01-08T00:57:49;10.30;1.00
4548;DHT22;2286;51.570;7.090;2023-01-08T01:00:17;10.30;1.00
4548;DHT22;2286;51.570;7.090;2023-01-08T01:02:44;10.30;1.00
4548;DHT22;2286;51.570;7.090;2023-01-08T01:05:12;10.30;5.60
4548;DHT22;2286;51.570;7.090;2023-01-08T01:07:40;10.30;1.00
4548;DHT22;2286;51.570;7.090;2023-01-08T01:10:09;10.30;1.00
4548;DHT22;2286;51.570;7.090;2023-01-08T01:12:37;10.30;1.00
4548;DHT22;2286;51.570;7.090;2023-01-08T01:15:05;10.30;1.10
4548;DHT22;2286;51.570;7.090;2023-01-08T01:17:33;10.30;60.60
4548;DHT22;2286;51.570;7.090;2023-01-08T01:20:00;10.30;1.00
4548;DHT22;2286;51.570;7.090;2023-01-08T01:22:27;10.30;1.00
4548;DHT22;2286;51.570;7.090;2023-01-08T01:24:54;10.30;1.00
4548;DHT22;2286;51.570;7.090;2023-01-08T01:27:24;10.30;99.90
4548;DHT22;2286;51.570;7.090;2023-01-08T01:29:52;10.40;1.00
4548;DHT22;2286;51.570;7.090;2023-01-08T01:32:19;10.40;99.90
4548;DHT22;2286;51.570;7.090;2023-01-08T01:34:46;10.30;1.00
4548;DHT22;2286;51.570;7.090;2023-01-08T01:37:14;10.40;99.90
4548;DHT22;2286;51.570;7.090;2023-01-08T01:39:41;10.40;99.90
4548;DHT22;2286;51.570;7.090;2023-01-08T01:42:11;10.40;1.00
4548;DHT22;2286;51.570;7.090;2023-01-08T01:45:02;10.30;1.00
4548;DHT22;2286;51.570;7.090;2023-01-08T01:47:32;10.30;1.00
4548;DHT22;2286;51.570;7.090;2023-01-08T01:50:03;10.30;1.00
4548;DHT22;2286;51.570;7.090;2023-01-08T01:52:35;10.30;1.00
4548;DHT22;2286;51.570;7.090;2023-01-08T01:55:03;10.30;1.00
4548;DHT22;2286;51.570;7.090;2023-01-08T01:57:32;10.30;1.00
4548;DHT22;2286;51.570;7.090;2023-01-08T02:00:03;10.30;99.90
4548;DHT22;2286;51.570;7.090;2023-01-08T02:02:30;10.20;99.90
4548;DHT22;2286;51.570;7.090;2023-01-08T02:04:58;10.20;99.90
4548;DHT22;2286;51.570;7.090;2023-01-08T02:07:29;10.30;99.90
4548;DHT22;2286;51.570;7.090;2023-01-08T02:10:03;10.30;1.00
4548;DHT22;2286;51.570;7.090;2023-01-08T02:12:36;10.30;99.90
4548;DHT22;2286;51.570;7.090;2023-01-08T02:15:10;10.30;58.50
4548;DHT22;2286;51.570;7.090;2023-01-08T02:17:44;10.30;1.00
4548;DHT22;2286;51.570;7.090;2023-01-08T02:20:17;10.30;99.90
4548;DHT22;2286;51.570;7.090;2023-01-08T02:22:51;10.30;99.90
4548;DHT22;2286;51.570;7.090;2023-01-08T02:25:31;10.20;1.00
4548;DHT22;2286;51.570;7.090;2023-01-08T02:28:08;10.20;1.00
4548;DHT22;2286;51.570;7.090;2023-01-08T02:30:36;10.20;1.00
4548;DHT22;2286;51.570;7.090;2023-01-08T02:33:03;10.20;1.00
4548;DHT22;2286;51.570;7.090;2023-01-08T02:35:37;10.30;1.00
4548;DHT22;2286;51.570;7.090;2023-01-08T02:38:07;10.30;1.00
4548;DHT22;2286;51.570;7.090;2023-01-08T02:40:44;10.20;99.90
4548;DHT22;2286;51.570;7.090;2023-01-08T02:43:18;10.30;99.90
4548;DHT22;2286;51.570;7.090;2023-01-08T02:45:50;10.30;99.90
4548;DHT22;2286;51.570;7.090;2023-01-08T02:48:22;10.20;99.90
4548;DHT22;2286;51.570;7.090;2023-01-08T02:50:58;10.20;1.00
4548;DHT22;2286;51.570;7.090;2023-01-08T02:53:27;10.20;1.00
4548;DHT22;2286;51.570;7.090;2023-01-08T02:55:58;10.20;99.90
4548;DHT22;2286;51.570;7.090;2023-01-08T02:58:31;10.20;1.00
4548;DHT22;2286;51.570;7.090;2023-01-08T03:01:00;10.10;1.00
4548;DHT22;2286;51.570;7.090;2023-01-08T03:03:29;10.10;12.80
4548;DHT22;2286;51.570;7.090;2023-01-08T03:05:59;10.00;99.90
4548;DHT22;2286;51.570;7.090;2023-01-08T03:08:27;10.00;99.90
4548;DHT22;2286;51.570;7.090;2023-01-08T03:10:59;10.00;99.90
4548;DHT22;2286;51.570;7.090;2023-01-08T03:13:33;10.00;26.10
4548;DHT22;2286;51.570;7.090;2023-01-08T03:16:07;9.90;99.90
4548;DHT22;2286;51.570;7.090;2023-01-08T03:18:39;9.90;99.90
4548;DHT22;2286;51.570;7.090;2023-01-08T03:21:08;9.90;99.90
4548;DHT22;2286;51.570;7.090;2023-01-08T03:23:37;9.90;99.90
4548;DHT22;2286;51.570;7.090;2023-01-08T03:26:06;9.90;99.90
4548;DHT22;2286;51.570;7.090;2023-01-08T03:28:41;9.80;1.00
4548;DHT22;2286;51.570;7.090;2023-01-08T03:31:10;9.80;28.90
4548;DHT22;2286;51.570;7.090;2023-01-08T03:33:41;9.80;7.70
4548;DHT22;2286;51.570;7.090;2023-01-08T03:36:13;9.80;33.50
4548;DHT22;2286;51.570;7.090;2023-01-08T03:38:46;9.80;99.90
4548;DHT22;2286;51.570;7.090;2023-01-08T03:41:18;9.80;61.10
4548;DHT22;2286;51.570;7.090;2023-01-08T03:43:48;9.90;1.00
4548;DHT22;2286;51.570;7.090;2023-01-08T03:46:18;9.90;1.00
4548;DHT22;2286;51.570;7.090;2023-01-08T03:48:47;9.90;1.00
4548;DHT22;2286;51.570;7.090;2023-01-08T03:51:15;9.90;99.90
4548;DHT22;2286;51.570;7.090;2023-01-08T03:53:43;9.90;1.00
4548;DHT22;2286;51.570;7.090;2023-01-08T03:56:11;10.00;1.00
4548;DHT22;2286;51.570;7.090;2023-01-08T03:58:38;10.00;1.00
4548;DHT22;2286;51.570;7.090;2023-01-08T04:01:06;10.00;1.00
4548;DHT22;2286;51.570;7.090;2023-01-08T04:03:33;10.00;1.00
4548;DHT22;2286;51.570;7.090;2023-01-08T04:06:00;10.00;1.00
4548;DHT22;2286;51.570;7.090;2023-01-08T04:08:26;10.00;1.00
4548;DHT22;2286;51.570;7.090;2023-01-08T04:10:53;10.00;1.00
4548;DHT22;2286;51.570;7.090;2023-01-08T04:13:20;9.90;91.30
4548;DHT22;2286;51.570;7.090;2023-01-08T04:15:47;9.90;99.90
4548;DHT22;2286;51.570;7.090;2023-01-08T04:18:16;9.90;99.90
4548;DHT22;2286;51.570;7.090;2023-01-08T04:20:44;9.90;99.90
4548;DHT22;2286;51.570;7.090;2023-01-08T04:23:12;9.90;99.90
4548;DHT22;2286;51.570;7.090;2023-01-08T04:25:39;9.90;99.90
4548;DHT22;2286;51.570;7.090;2023-01-08T04:28:06;9.90;99.90
4548;DHT22;2286;51.570;7.090;2023-01-08T04:30:32;10.00;99.90
4548;DHT22;2286;51.570;7.090;2023-01-08T04:32:59;10.00;99.90
4548;DHT22;2286;51.570;7.090;2023-01-08T04:35:27;9.90;99.90
4548;DHT22;2286;51.570;7.090;2023-01-08T04:37:54;9.90;99.90
4548;DHT22;2286;51.570;7.090;2023-01-08T04:40:21;9.90;1.00
4548;DHT22;2286;51.570;7.090;2023-01-08T04:42:47;9.90;1.00
4548;DHT22;2286;51.570;7.090;2023-01-08T04:45:14;9.90;1.00
4548;DHT22;2286;51.570;7.090;2023-01-08T04:47:41;9.90;1.00
4548;DHT22;2286;51.570;7.090;2023-01-08T04:50:08;9.90;1.00
4548;DHT22;2286;51.570;7.090;2023-01-08T04:52:36;9.80;1.00
4548;DHT22;2286;51.570;7.090;2023-01-08T04:55:04;9.80;1.00
4548;DHT22;2286;51.570;7.090;2023-01-08T04:57:31;9.80;72.50
4548;DHT22;2286;51.570;7.090;2023-01-08T04:59:58;9.80;85.70
4548;DHT22;2286;51.570;7.090;2023-01-08T05:02:25;9.80;99.90
4548;DHT22;2286;51.570;7.090;2023-01-08T05:04:52;9.80;1.00
4548;DHT22;2286;51.570;7.090;2023-01-08T05:07:18;9.80;99.90
4548;DHT22;2286;51.570;7.090;2023-01-08T05:09:46;9.80;1.00
4548;DHT22;2286;51.570;7.090;2023-01-08T05:12:13;9.80;1.00
4548;DHT22;2286;51.570;7.090;2023-01-08T05:14:40;9.80;99.90
4548;DHT22;2286;51.570;7.090;2023-01-08T05:17:07;9.80;99.90
4548;DHT22;2286;51.570;7.090;2023-01-08T05:19:33;9.80;99.90
4548;DHT22;2286;51.570;7.090;2023-01-08T05:22:00;9.80;99.90
4548;DHT22;2286;51.570;7.090;2023-01-08T05:24:27;9.80;99.90
4548;DHT22;2286;51.570;7.090;2023-01-08T05:26:55;9.80;99.90
4548;DHT22;2286;51.570;7.090;2023-01-08T05:29:22;9.80;1.00
4548;DHT22;2286;51.570;7.090;2023-01-08T05:31:49;9.80;99.90
4548;DHT22;2286;51.570;7.090;2023-01-08T05:34:16;9.80;99.90
4548;DHT22;2286;51.570;7.090;2023-01-08T05:36:43;9.90;18.60
4548;DHT22;2286;51.570;7.090;2023-01-08T05:39:09;9.80;1.00
4548;DHT22;2286;51.570;7.090;2023-01-08T05:41:36;9.80;1.00
4548;DHT22;2286;51.570;7.090;2023-01-08T05:44:04;9.90;1.00
4548;DHT22;2286;51.570;7.090;2023-01-08T05:46:31;9.90;99.90
4548;DHT22;2286;51.570;7.090;2023-01-08T05:48:58;9.90;99.90
4548;DHT22;2286;51.570;7.090;2023-01-08T05:51:25;9.80;1.00
4548;DHT22;2286;51.570;7.090;2023-01-08T05:53:51;9.90;1.00
4548;DHT22;2286;51.570;7.090;2023-01-08T05:56:18;9.90;99.90
4548;DHT22;2286;51.570;7.090;2023-01-08T05:58:45;9.90;99.90
4548;DHT22;2286;51.570;7.090;2023-01-08T06:01:13;9.90;1.00
4548;DHT22;2286;51.570;7.090;2023-01-08T06:03:41;9.80;1.00
4548;DHT22;2286;51.570;7.090;2023-01-08T06:06:09;9.70;99.90
4548;DHT22;2286;51.570;7.090;2023-01-08T06:08:36;9.60;99.90
4548;DHT22;2286;51.570;7.090;2023-01-08T06:11:04;9.60;1.00
4548;DHT22;2286;51.570;7.090;2023-01-08T06:13:31;9.60;99.90
4548;DHT22;2286;51.570;7.090;2023-01-08T06:15:59;9.70;99.90
4548;DHT22;2286;51.570;7.090;2023-01-08T06:18:28;9.70;99.90
4548;DHT22;2286;51.570;7.090;2023-01-08T06:20:55;9.70;99.90
4548;DHT22;2286;51.570;7.090;2023-01-08T06:23:22;9.70;99.90
4548;DHT22;2286;51.570;7.090;2023-01-08T06:25:51;9.70;99.90
4548;DHT22;2286;51.570;7.090;2023-01-08T06:28:18;9.80;99.90
4548;DHT22;2286;51.570;7.090;2023-01-08T06:30:45;9.80;1.00
4548;DHT22;2286;51.570;7.090;2023-01-08T06:33:12;9.80;1.00
4548;DHT22;2286;51.570;7.090;2023-01-08T06:35:40;9.80;1.00
4548;DHT22;2286;51.570;7.090;2023-01-08T06:38:06;9.70;99.90
4548;DHT22;2286;51.570;7.090;2023-01-08T06:40:33;9.80;99.90
4548;DHT22;2286;51.570;7.090;2023-01-08T06:43:00;9.80;99.90
4548;DHT22;2286;51.570;7.090;2023-01-08T06:45:27;9.80;99.90
4548;DHT22;2286;51.570;7.090;2023-01-08T06:47:54;9.90;99.90
4548;DHT22;2286;51.570;7.090;2023-01-08T06:50:21;9.90;99.90
4548;DHT22;2286;51.570;7.090;2023-01-08T06:52:53;10.00;99.90
4548;DHT22;2286;51.570;7.090;2023-01-08T06:55:19;10.00;99.90
4548;DHT22;2286;51.570;7.090;2023-01-08T06:57:46;10.00;1.00
4548;DHT22;2286;51.570;7.090;2023-01-08T07:00:13;9.90;1.00
4548;DHT22;2286;51.570;7.090;2023-01-08T07:02:41;9.70;99.90
4548;DHT22;2286;51.570;7.090;2023-01-08T07:05:08;9.40;15.90
4548;DHT22;2286;51.570;7.090;2023-01-08T07:07:35;8.90;99.90
4548;DHT22;2286;51.570;7.090;2023-01-08T07:10:04;8.70;99.90
4548;DHT22;2286;51.570;7.090;2023-01-08T07:12:30;8.60;99.90
4548;DHT22;2286;51.570;7.090;2023-01-08T07:14:57;8.50;99.90
4548;DHT22;2286;51.570;7.090;2023-01-08T07:17:24;8.40;99.90
4548;DHT22;2286;51.570;7.090;2023-01-08T07:19:51;8.30;99.90
4548;DHT22;2286;51.570;7.090;2023-01-08T07:22:17;8.20;99.90
4548;DHT22;2286;51.570;7.090;2023-01-08T07:24:45;8.20;99.90
4548;DHT22;2286;51.570;7.090;2023-01-08T07:27:13;8.20;99.90
4548;DHT22;2286;51.570;7.090;2023-01-08T07:29:40;8.10;99.90
4548;DHT22;2286;51.570;7.090;2023-01-08T07:32:07;8.10;99.90
4548;DHT22;2286;51.570;7.090;2023-01-08T07:34:33;8.00;99.90
4548;DHT22;2286;51.570;7.090;2023-01-08T07:37:01;7.80;99.90
4548;DHT22;2286;51.570;7.090;2023-01-08T07:39:28;7.80;99.90
4548;DHT22;2286;51.570;7.090;2023-01-08T07:41:55;7.70;99.90
4548;DHT22;2286;51.570;7.090;2023-01-08T07:44:23;7.70;99.90
4548;DHT22;2286;51.570;7.090;2023-01-08T07:46:49;7.70;99.90
4548;DHT22;2286;51.570;7.090;2023-01-08T07:49:16;7.60;99.90
4548;DHT22;2286;51.570;7.090;2023-01-08T07:51:43;7.60;99.90
4548;DHT22;2286;51.570;7.090;2023-01-08T07:54:10;7.60;99.90
4548;DHT22;2286;51.570;7.090;2023-01-08T07:56:37;7.60;99.90
4548;DHT22;2286;51.570;7.090;2023-01-08T07:59:03;7.70;99.90
4548;DHT22;2286;51.570;7.090;2023-01-08T08:01:31;7.70;99.90
4548;DHT22;2286;51.570;7.090;2023-01-08T08:03:58;7.70;99.90
4548;DHT22;2286;51.570;7.090;2023-01-08T08:06:25;7.70;99.90
4548;DHT22;2286;51.570;7.090;2023-01-08T08:08:52;7.70;99.90
4548;DHT22;2286;51.570;7.090;2023-01-08T08:11:18;7.70;99.90
4548;DHT22;2286;51.570;7.090;2023-01-08T08:13:45;7.80;99.90
4548;DHT22;2286;51.570;7.090;2023-01-08T08:16:15;7.80;99.90
4548;DHT22;2286;51.570;7.090;2023-01-08T08:18:43;7.70;99.90
4548;DHT22;2286;51.570;7.090;2023-01-08T08:21:09;7.70;99.90
4548;DHT22;2286;51.570;7.090;2023-01-08T08:23:36;7.60;99.90
4548;DHT22;2286;51.570;7.090;2023-01-08T08:26:03;7.60;99.90
4548;DHT22;2286;51.570;7.090;2023-01-08T08:28:32;7.60;99.90
4548;DHT22;2286;51.570;7.090;2023-01-08T08:30:59;7.60;99.90
4548;DHT22;2286;51.570;7.090;2023-01-08T08:33:25;7.60;99.90
4548;DHT22;2286;51.570;7.090;2023-01-08T08:35:53;7.50;99.90
4548;DHT22;2286;51.570;7.090;2023-01-08T08:38:20;7.40;99.90
4548;DHT22;2286;51.570;7.090;2023-01-08T08:40:47;7.40;99.90
4548;DHT22;2286;51.570;7.090;2023-01-08T08:43:14;7.30;99.90
4548;DHT22;2286;51.570;7.090;2023-01-08T08:45:40;7.20;99.90
4548;DHT22;2286;51.570;7.090;2023-01-08T08:48:07;7.10;99.90
4548;DHT22;2286;51.570;7.090;2023-01-08T08:50:35;7.10;99.90
4548;DHT22;2286;51.570;7.090;2023-01-08T08:53:05;7.10;99.90
4548;DHT22;2286;51.570;7.090;2023-01-08T08:55:32;7.00;99.90
4548;DHT22;2286;51.570;7.090;2023-01-08T08:58:03;7.10;99.90
4548;DHT22;2286;51.570;7.090;2023-01-08T09:00:30;7.10;99.90
4548;DHT22;2286;51.570;7.090;2023-01-08T09:02:57;7.20;99.90
4548;DHT22;2286;51.570;7.090;2023-01-08T09:05:24;7.10;99.90
4548;DHT22;2286;51.570;7.090;2023-01-08T09:07:51;7.10;99.90
4548;DHT22;2286;51.570;7.090;2023-01-08T09:10:20;7.10;99.90
4548;DHT22;2286;51.570;7.090;2023-01-08T09:12:46;7.10;99.90
4548;DHT22;2286;51.570;7.090;2023-01-08T09:15:13;7.20;99.90
4548;DHT22;2286;51.570;7.090;2023-01-08T09:17:40;7.20;99.90
4548;DHT22;2286;51.570;7.090;2023-01-08T09:20:08;7.30;99.90
4548;DHT22;2286;51.570;7.090;2023-01-08T09:22:35;7.30;99.90
4548;DHT22;2286;51.570;7.090;2023-01-08T09:25:02;7.40;99.90
4548;DHT22;2286;51.570;7.090;2023-01-08T09:27:30;7.50;99.90
4548;DHT22;2286;51.570;7.090;2023-01-08T09:29:56;7.50;99.90
4548;DHT22;2286;51.570;7.090;2023-01-08T09:32:23;7.60;99.90
4548;DHT22;2286;51.570;7.090;2023-01-08T09:34:50;7.60;58.20
4548;DHT22;2286;51.570;7.090;2023-01-08T09:37:17;7.70;1.00
4548;DHT22;2286;51.570;7.090;2023-01-08T09:39:43;7.70;13.80
4548;DHT22;2286;51.570;7.090;2023-01-08T09:42:12;7.70;1.50
4548;DHT22;2286;51.570;7.090;2023-01-08T09:44:42;7.80;1.00
4548;DHT22;2286;51.570;7.090;2023-01-08T09:47:21;7.90;1.00
4548;DHT22;2286;51.570;7.090;2023-01-08T09:49:52;8.00;99.90
4548;DHT22;2286;51.570;7.090;2023-01-08T09:52:20;8.00;99.90
4548;DHT22;2286;51.570;7.090;2023-01-08T09:54:47;8.10;1.00
4548;DHT22;2286;51.570;7.090;2023-01-08T09:57:16;8.10;1.00
4548;DHT22;2286;51.570;7.090;2023-01-08T09:59:46;8.20;25.90
4548;DHT22;2286;51.570;7.090;2023-01-08T10:02:14;8.30;1.00
4548;DHT22;2286;51.570;7.090;2023-01-08T10:04:43;8.50;1.00
4548;DHT22;2286;51.570;7.090;2023-01-08T10:07:14;8.50;99.90
4548;DHT22;2286;51.570;7.090;2023-01-08T10:09:46;8.70;99.90
4548;DHT22;2286;51.570;7.090;2023-01-08T10:12:14;9.00;1.00
4548;DHT22;2286;51.570;7.090;2023-01-08T10:14:42;9.00;1.00
4548;DHT22;2286;51.570;7.090;2023-01-08T10:17:22;9.20;99.90
4548;DHT22;2286;51.570;7.090;2023-01-08T10:19:51;9.50;1.00
4548;DHT22;2286;51.570;7.090;2023-01-08T10:22:19;9.60;1.00
4548;DHT22;2286;51.570;7.090;2023-01-08T10:24:46;9.70;99.90
4548;DHT22;2286;51.570;7.090;2023-01-08T10:27:15;9.70;99.90
4548;DHT22;2286;51.570;7.090;2023-01-08T10:29:42;9.80;99.90
4548;DHT22;2286;51.570;7.090;2023-01-08T10:32:13;9.80;99.90
4548;DHT22;2286;51.570;7.090;2023-01-08T10:34:44;9.80;99.90
4548;DHT22;2286;51.570;7.090;2023-01-08T10:37:23;10.00;99.90
4548;DHT22;2286;51.570;7.090;2023-01-08T10:39:52;10.10;1.00
4548;DHT22;2286;51.570;7.090;2023-01-08T10:42:20;10.40;99.90
4548;DHT22;2286;51.570;7.090;2023-01-08T10:44:55;10.60;1.00
4548;DHT22;2286;51.570;7.090;2023-01-08T10:47:24;10.70;99.90
4548;DHT22;2286;51.570;7.090;2023-01-08T10:49:54;10.70;1.00
4548;DHT22;2286;51.570;7.090;2023-01-08T10:52:25;10.80;1.00
4548;DHT22;2286;51.570;7.090;2023-01-08T10:54:52;10.70;1.00
4548;DHT22;2286;51.570;7.090;2023-01-08T10:57:21;11.00;99.90
4548;DHT22;2286;51.570;7.090;2023-01-08T10:59:48;11.20;99.90
4548;DHT22;2286;51.570;7.090;2023-01-08T11:02:28;11.50;1.00
4548;DHT22;2286;51.570;7.090;2023-01-08T11:04:58;11.70;1.00
4548;DHT22;2286;51.570;7.090;2023-01-08T11:07:25;12.00;99.90
4548;DHT22;2286;51.570;7.090;2023-01-08T11:09:53;12.30;1.00
4548;DHT22;2286;51.570;7.090;2023-01-08T11:12:30;12.30;1.00
4548;DHT22;2286;51.570;7.090;2023-01-08T11:14:58;12.20;1.00
4548;DHT22;2286;51.570;7.090;2023-01-08T11:17:26;12.40;1.00
4548;DHT22;2286;51.570;7.090;2023-01-08T11:19:53;12.60;99.90
4548;DHT22;2286;51.570;7.090;2023-01-08T11:22:22;12.80;1.00
4548;DHT22;2286;51.570;7.090;2023-01-08T11:24:51;13.00;99.90
4548;DHT22;2286;51.570;7.090;2023-01-08T11:27:23;12.90;1.00
4548;DHT22;2286;51.570;7.090;2023-01-08T11:29:58;12.70;99.90
4548;DHT22;2286;51.570;7.090;2023-01-08T11:32:36;12.40;99.90
4548;DHT22;2286;51.570;7.090;2023-01-08T11:35:12;12.50;1.00
4548;DHT22;2286;51.570;7.090;2023-01-08T11:37:49;12.30;99.90
4548;DHT22;2286;51.570;7.090;2023-01-08T11:40:20;12.00;1.00
4548;DHT22;2286;51.570;7.090;2023-01-08T11:42:58;12.00;99.90
4548;DHT22;2286;51.570;7.090;2023-01-08T11:45:35;12.10;1.00
4548;DHT22;2286;51.570;7.090;2023-01-08T11:48:28;12.10;1.00
4548;DHT22;2286;51.570;7.090;2023-01-08T11:51:19;12.10;99.90
4548;DHT22;2286;51.570;7.090;2023-01-08T11:53:55;12.00;1.00
4548;DHT22;2286;51.570;7.090;2023-01-08T11:56:37;11.70;1.00
4548;DHT22;2286;51.570;7.090;2023-01-08T11:59:13;11.60;1.00
4548;DHT22;2286;51.570;7.090;2023-01-08T12:01:50;11.40;1.00
4548;DHT22;2286;51.570;7.090;2023-01-08T12:04:48;11.40;1.00
4548;DHT22;2286;51.570;7.090;2023-01-08T12:07:23;11.20;99.90
4548;DHT22;2286;51.570;7.090;2023-01-08T12:09:57;11.20;9.50
4548;DHT22;2286;51.570;7.090;2023-01-08T12:12:39;11.30;99.90
4548;DHT22;2286;51.570;7.090;2023-01-08T12:15:15;11.20;7.80
4548;DHT22;2286;51.570;7.090;2023-01-08T12:18:15;11.20;99.90
4548;DHT22;2286;51.570;7.090;2023-01-08T12:20:49;11.20;99.90
4548;DHT22;2286;51.570;7.090;2023-01-08T12:23:27;11.30;99.90
4548;DHT22;2286;51.570;7.090;2023-01-08T12:26:08;11.30;99.90
4548;DHT22;2286;51.570;7.090;2023-01-08T12:28:54;11.20;95.20
4548;DHT22;2286;51.570;7.090;2023-01-08T12:31:37;11.10;99.90
4548;DHT22;2286;51.570;7.090;2023-01-08T12:34:09;11.10;99.90
4548;DHT22;2286;51.570;7.090;2023-01-08T12:36:41;11.00;53.10
4548;DHT22;2286;51.570;7.090;2023-01-08T12:39:12;10.90;99.90
4548;DHT22;2286;51.570;7.090;2023-01-08T12:41:44;8.60;99.90
4548;DHT22;2286;51.570;7.090;2023-01-08T12:44:19;7.20;1.00
4548;DHT22;2286;51.570;7.090;2023-01-08T12:46:50;7.00;99.90
4548;DHT22;2286;51.570;7.090;2023-01-08T12:49:24;7.10;99.90
4548;DHT22;2286;51.570;7.090;2023-01-08T12:52:00;7.20;99.90
4548;DHT22;2286;51.570;7.090;2023-01-08T12:54:33;7.40;99.90
4548;DHT22;2286;51.570;7.090;2023-01-08T12:57:06;7.60;99.90
4548;DHT22;2286;51.570;7.090;2023-01-08T12:59:40;7.70;99.90
4548;DHT22;2286;51.570;7.090;2023-01-08T13:02:17;8.00;99.90
4548;DHT22;2286;51.570;7.090;2023-01-08T13:04:49;8.60;99.90
4548;DHT22;2286;51.570;7.090;2023-01-08T13:07:18;9.00;99.90
4548;DHT22;2286;51.570;7.090;2023-01-08T13:09:54;9.30;99.90
4548;DHT22;2286;51.570;7.090;2023-01-08T13:12:30;9.90;99.90
4548;DHT22;2286;51.570;7.090;2023-01-08T13:14:58;10.40;99.90
4548;DHT22;2286;51.570;7.090;2023-01-08T13:17:26;10.30;1.00
4548;DHT22;2286;51.570;7.090;2023-01-08T13:19:58;10.40;99.90
4548;DHT22;2286;51.570;7.090;2023-01-08T13:22:27;10.10;1.00
4548;DHT22;2286;51.570;7.090;2023-01-08T13:25:26;9.70;99.90
4548;DHT22;2286;51.570;7.090;2023-01-08T13:27:55;9.60;99.90
4548;DHT22;2286;51.570;7.090;2023-01-08T13:30:32;9.60;99.90
4548;DHT22;2286;51.570;7.090;2023-01-08T13:32:59;9.50;99.90
4548;DHT22;2286;51.570;7.090;2023-01-08T13:35:27;9.40;99.90
4548;DHT22;2286;51.570;7.090;2023-01-08T13:38:12;9.50;99.90
4548;DHT22;2286;51.570;7.090;2023-01-08T13:41:03;9.60;99.90
4548;DHT22;2286;51.570;7.090;2023-01-08T13:43:35;9.70;99.90
4548;DHT22;2286;51.570;7.090;2023-01-08T13:46:07;9.80;99.90
4548;DHT22;2286;51.570;7.090;2023-01-08T13:48:46;10.00;1.00
4548;DHT22;2286;51.570;7.090;2023-01-08T13:51:30;10.30;99.90
4548;DHT22;2286;51.570;7.090;2023-01-08T13:54:04;10.40;99.90
4548;DHT22;2286;51.570;7.090;2023-01-08T13:56:32;10.30;99.90
4548;DHT22;2286;51.570;7.090;2023-01-08T13:59:00;10.10;1.00
4548;DHT22;2286;51.570;7.090;2023-01-08T14:01:27;10.00;1.00
4548;DHT22;2286;51.570;7.090;2023-01-08T14:03:54;9.80;99.90
4548;DHT22;2286;51.570;7.090;2023-01-08T14:06:23;9.80;1.00
4548;DHT22;2286;51.570;7.090;2023-01-08T14:08:51;9.80;99.90
4548;DHT22;2286;51.570;7.090;2023-01-08T14:11:20;9.80;1.00
4548;DHT22;2286;51.570;7.090;2023-01-08T14:13:48;9.90;8.60
4548;DHT22;2286;51.570;7.090;2023-01-08T14:16:16;9.90;99.90
4548;DHT22;2286;51.570;7.090;2023-01-08T14:18:44;9.80;99.90
4548;DHT22;2286;51.570;7.090;2023-01-08T14:21:13;9.70;1.00
4548;DHT22;2286;51.570;7.090;2023-01-08T14:23:44;9.60;99.90
4548;DHT22;2286;51.570;7.090;2023-01-08T14:26:19;9.50;99.90
4548;DHT22;2286;51.570;7.090;2023-01-08T14:28:52;9.50;99.90
4548;DHT22;2286;51.570;7.090;2023-01-08T14:31:22;9.50;1.00
4548;DHT22;2286;51.570;7.090;2023-01-08T14:33:49;9.50;37.90
4548;DHT22;2286;51.570;7.090;2023-01-08T14:36:18;9.60;1.00
4548;DHT22;2286;51.570;7.090;2023-01-08T14:38:45;9.60;1.00
4548;DHT22;2286;51.570;7.090;2023-01-08T14:41:19;9.70;75.80
4548;DHT22;2286;51.570;7.090;2023-01-08T14:44:12;9.60;1.00
4548;DHT22;2286;51.570;7.090;2023-01-08T14:46:43;9.50;30.90
4548;DHT22;2286;51.570;7.090;2023-01-08T14:49:17;9.40;1.00
4548;DHT22;2286;51.570;7.090;2023-01-08T14:51:45;9.40;99.90
4548;DHT22;2286;51.570;7.090;2023-01-08T14:54:16;9.40;99.90
4548;DHT22;2286;51.570;7.090;2023-01-08T14:56:46;9.50;99.90
4548;DHT22;2286;51.570;7.090;2023-01-08T14:59:17;9.50;1.00
4548;DHT22;2286;51.570;7.090;2023-01-08T15:01:54;9.50;1.00
4548;DHT22;2286;51.570;7.090;2023-01-08T15:04:26;9.40;1.00
4548;DHT22;2286;51.570;7.090;2023-01-08T15:07:04;9.30;1.00
4548;DHT22;2286;51.570;7.090;2023-01-08T15:09:33;9.10;99.90
4548;DHT22;2286;51.570;7.090;2023-01-08T15:12:02;9.00;1.00
4548;DHT22;2286;51.570;7.090;2023-01-08T15:14:30;8.90;1.00
4548;DHT22;2286;51.570;7.090;2023-01-08T15:17:07;8.90;1.00
4548;DHT22;2286;51.570;7.090;2023-01-08T15:19:38;8.80;99.90
4548;DHT22;2286;51.570;7.090;2023-01-08T15:22:14;8.60;99.90
4548;DHT22;2286;51.570;7.090;2023-01-08T15:24:41;8.60;5.60
4548;DHT22;2286;51.570;7.090;2023-01-08T15:27:17;8.40;1.00
4548;DHT22;2286;51.570;7.090;2023-01-08T15:29:47;8.40;1.00
4548;DHT22;2286;51.570;7.090;2023-01-08T15:32:21;8.40;99.90
4548;DHT22;2286;51.570;7.090;2023-01-08T15:34:48;8.30;4.30
4548;DHT22;2286;51.570;7.090;2023-01-08T15:37:15;8.40;21.70
4548;DHT22;2286;51.570;7.090;2023-01-08T15:39:42;8.50;1.00
4548;DHT22;2286;51.570;7.090;2023-01-08T15:42:18;8.40;99.90
4548;DHT22;2286;51.570;7.090;2023-01-08T15:45:03;8.50;99.90
4548;DHT22;2286;51.570;7.090;2023-01-08T15:47:32;8.50;99.90
4548;DHT22;2286;51.570;7.090;2023-01-08T15:49:58;8.30;1.00
4548;DHT22;2286;51.570;7.090;2023-01-08T15:52:27;8.20;1.00
4548;DHT22;2286;51.570;7.090;2023-01-08T15:54:56;8.10;99.90
4548;DHT22;2286;51.570;7.090;2023-01-08T15:57:23;8.00;99.90
4548;DHT22;2286;51.570;7.090;2023-01-08T15:59:49;7.90;99.90
4548;DHT22;2286;51.570;7.090;2023-01-08T16:02:17;7.90;1.00
4548;DHT22;2286;51.570;7.090;2023-01-08T16:04:50;7.80;1.00
4548;DHT22;2286;51.570;7.090;2023-01-08T16:07:17;7.80;99.90
4548;DHT22;2286;51.570;7.090;2023-01-08T16:09:44;7.90;1.00
4548;DHT22;2286;51.570;7.090;2023-01-08T16:12:11;7.90;99.90
4548;DHT22;2286;51.570;7.090;2023-01-08T16:14:38;7.90;1.00
4548;DHT22;2286;51.570;7.090;2023-01-08T16:17:05;7.90;1.00
4548;DHT22;2286;51.570;7.090;2023-01-08T16:19:32;7.90;99.90
4548;DHT22;2286;51.570;7.090;2023-01-08T16:22:01;8.00;5.60
4548;DHT22;2286;51.570;7.090;2023-01-08T16:24:29;8.10;6.20
4548;DHT22;2286;51.570;7.090;2023-01-08T16:26:55;8.20;99.90
4548;DHT22;2286;51.570;7.090;2023-01-08T16:29:22;8.30;1.00
4548;DHT22;2286;51.570;7.090;2023-01-08T16:31:49;8.30;1.00
4548;DHT22;2286;51.570;7.090;2023-01-08T16:34:16;8.40;1.00
4548;DHT22;2286;51.570;7.090;2023-01-08T16:36:43;8.40;1.00